sensor_id;sensor_type;location;lat;lon;timestamp;pressure;altitude;pressure_sealevel;temperature;humidity
14232;BME280;7200;52.194;9.900;2023-05-17T00:00:33;100905.88;;;10.18;100.00
14232;BME280;7200;52.194;9.900;2023-05-17T00:02:58;100891.72;;;9.89;100.00
14232;BME280;7200;52.194;9.900;2023-05-17T00:05:24;100900.44;;;9.91;100.00
14232;BME280;7200;52.194;9.900;2023-05-17T00:07:49;100897.88;;;9.88;100.00
14232;BME280;7200;52.194;9.900;2023-05-17T00:10:15;100898.16;;;9.77;100.00
14232;BME280;7200;52.194;9.900;2023-05-17T00:12:41;100901.69;;;9.78;100.00
14232;BME280;7200;52.194;9.900;2023-05-17T00:15:06;100917.13;;;9.91;100.00
14232;BME280;7200;52.194;9.900;2023-05-17T00:17:32;100896.47;;;9.74;100.00
14232;BME280;7200;52.194;9.900;2023-05-17T00:19:57;100897.44;;;9.72;100.00
14232;BME280;7200;52.194;9.900;2023-05-17T00:22:22;100903.56;;;9.72;100.00
14232;BME280;7200;52.194;9.900;2023-05-17T00:24:47;100899.28;;;9.68;100.00
14232;BME280;7200;52.194;9.900;2023-05-17T00:27:13;100902.81;;;9.66;100.00
14232;BME280;7200;52.194;9.900;2023-05-17T00:29:38;100912.72;;;9.92;100.00
14232;BME280;7200;52.194;9.900;2023-05-17T00:32:04;100909.25;;;9.90;100.00
14232;BME280;7200;52.194;9.900;2023-05-17T00:34:29;100909.22;;;9.91;100.00
14232;BME280;7200;52.194;9.900;2023-05-17T00:36:54;100910.81;;;9.97;100.00
14232;BME280;7200;52.194;9.900;2023-05-17T00:39:20;100903.75;;;9.99;100.00
14232;BME280;7200;52.194;9.900;2023-05-17T00:41:45;100908.94;;;10.02;100.00
14232;BME280;7200;52.194;9.900;2023-05-17T00:44:10;100915.06;;;10.03;100.00
14232;BME280;7200;52.194;9.900;2023-05-17T00:46:35;100921.91;;;10.10;100.00
14232;BME280;7200;52.194;9.900;2023-05-17T00:49:01;100921.09;;;10.08;100.00
14232;BME280;7200;52.194;9.900;2023-05-17T00:51:26;100904.69;;;9.97;100.00
14232;BME280;7200;52.194;9.900;2023-05-17T00:53:53;100924.59;;;10.08;100.00
14232;BME280;7200;52.194;9.900;2023-05-17T00:56:18;100942.84;;;10.16;100.00
14232;BME280;7200;52.194;9.900;2023-05-17T00:58:44;100938.34;;;10.20;100.00
14232;BME280;7200;52.194;9.900;2023-05-17T01:01:09;100940.22;;;10.14;100.00
14232;BME280;7200;52.194;9.900;2023-05-17T01:03:34;100943.72;;;10.15;100.00
14232;BME280;7200;52.194;9.900;2023-05-17T01:06:00;100937.00;;;10.03;100.00
14232;BME280;7200;52.194;9.900;2023-05-17T01:08:26;100927.03;;;9.82;100.00
14232;BME280;7200;52.194;9.900;2023-05-17T01:13:44;100935.94;;;9.78;100.00
14232;BME280;7200;52.194;9.900;2023-05-17T01:18:45;100951.84;;;9.73;100.00
14232;BME280;7200;52.194;9.900;2023-05-17T01:24:18;100976.97;;;9.86;100.00
14232;BME280;7200;52.194;9.900;2023-05-17T01:26:49;100966.84;;;9.69;100.00
14232;BME280;7200;52.194;9.900;2023-05-17T01:29:15;100966.84;;;9.69;100.00
14232;BME280;7200;52.194;9.900;2023-05-17T01:31:41;100953.22;;;9.52;100.00
14232;BME280;7200;52.194;9.900;2023-05-17T01:34:08;100970.72;;;9.54;100.00
14232;BME280;7200;52.194;9.900;2023-05-17T01:36:33;100979.31;;;9.63;100.00
14232;BME280;7200;52.194;9.900;2023-05-17T01:38:59;100973.31;;;9.56;100.00
14232;BME280;7200;52.194;9.900;2023-05-17T01:41:29;100983.63;;;9.65;100.00
14232;BME280;7200;52.194;9.900;2023-05-17T01:44:28;100981.84;;;9.67;100.00
14232;BME280;7200;52.194;9.900;2023-05-17T01:47:02;100970.72;;;9.54;100.00
14232;BME280;7200;52.194;9.900;2023-05-17T01:49:31;100990.66;;;9.66;100.00
14232;BME280;7200;52.194;9.900;2023-05-17T01:52:27;100972.63;;;9.49;100.00
14232;BME280;7200;52.194;9.900;2023-05-17T01:54:53;100991.69;;;9.59;100.00
14232;BME280;7200;52.194;9.900;2023-05-17T01:57:24;100981.59;;;9.41;100.00
14232;BME280;7200;52.194;9.900;2023-05-17T01:59:53;100990.44;;;9.38;100.00
14232;BME280;7200;52.194;9.900;2023-05-17T02:02:19;101003.91;;;9.62;100.00
14232;BME280;7200;52.194;9.900;2023-05-17T02:04:46;100994.63;;;9.45;100.00
14232;BME280;7200;52.194;9.900;2023-05-17T02:07:12;101004.72;;;9.65;100.00
14232;BME280;7200;52.194;9.900;2023-05-17T02:09:37;100997.97;;;9.53;100.00
14232;BME280;7200;52.194;9.900;2023-05-17T02:12:02;100997.22;;;9.48;100.00
14232;BME280;7200;52.194;9.900;2023-05-17T02:14:28;101001.63;;;9.48;100.00
14232;BME280;7200;52.194;9.900;2023-05-17T02:16:54;101018.09;;;9.56;100.00
14232;BME280;7200;52.194;9.900;2023-05-17T02:19:19;101009.94;;;9.68;100.00
14232;BME280;7200;52.194;9.900;2023-05-17T02:21:44;101024.19;;;9.96;100.00
14232;BME280;7200;52.194;9.900;2023-05-17T02:24:10;101013.28;;;10.11;100.00
14232;BME280;7200;52.194;9.900;2023-05-17T02:26:35;101011.56;;;10.10;100.00
14232;BME280;7200;52.194;9.900;2023-05-17T02:29:00;100995.34;;;9.91;100.00
14232;BME280;7200;52.194;9.900;2023-05-17T02:31:25;100996.19;;;9.91;100.00
14232;BME280;7200;52.194;9.900;2023-05-17T02:33:54;101009.34;;;9.93;100.00
14232;BME280;7200;52.194;9.900;2023-05-17T02:36:20;101009.81;;;10.09;100.00
14232;BME280;7200;52.194;9.900;2023-05-17T02:38:45;101009.94;;;10.04;100.00
14232;BME280;7200;52.194;9.900;2023-05-17T02:41:11;101025.41;;;10.18;100.00
14232;BME280;7200;52.194;9.900;2023-05-17T02:43:36;101026.59;;;10.06;100.00
14232;BME280;7200;52.194;9.900;2023-05-17T02:46:02;101032.50;;;10.16;100.00
14232;BME280;7200;52.194;9.900;2023-05-17T02:48:27;101042.03;;;10.20;100.00
14232;BME280;7200;52.194;9.900;2023-05-17T02:50:52;101029.19;;;10.08;100.00
14232;BME280;7200;52.194;9.900;2023-05-17T02:53:18;101021.59;;;9.94;100.00
14232;BME280;7200;52.194;9.900;2023-05-17T02:55:43;101037.38;;;9.96;100.00
14232;BME280;7200;52.194;9.900;2023-05-17T02:58:08;101040.16;;;9.89;100.00
14232;BME280;7200;52.194;9.900;2023-05-17T03:00:33;101056.69;;;9.96;100.00
14232;BME280;7200;52.194;9.900;2023-05-17T03:02:59;101061.84;;;10.02;100.00
14232;BME280;7200;52.194;9.900;2023-05-17T03:05:24;101059.13;;;10.04;100.00
14232;BME280;7200;52.194;9.900;2023-05-17T03:07:49;101069.44;;;10.14;100.00
14232;BME280;7200;52.194;9.900;2023-05-17T03:10:15;101054.78;;;10.03;100.00
14232;BME280;7200;52.194;9.900;2023-05-17T03:12:40;101067.19;;;9.98;100.00
14232;BME280;7200;52.194;9.900;2023-05-17T03:15:06;101069.84;;;9.98;100.00
14232;BME280;7200;52.194;9.900;2023-05-17T03:17:32;101077.75;;;9.98;100.00
14232;BME280;7200;52.194;9.900;2023-05-17T03:19:57;101082.75;;;10.10;100.00
14232;BME280;7200;52.194;9.900;2023-05-17T03:22:22;101077.53;;;10.07;100.00
14232;BME280;7200;52.194;9.900;2023-05-17T03:24:47;101076.09;;;9.93;100.00
14232;BME280;7200;52.194;9.900;2023-05-17T03:27:13;101082.09;;;10.00;100.00
14232;BME280;7200;52.194;9.900;2023-05-17T03:29:38;101061.69;;;9.69;100.00
14232;BME280;7200;52.194;9.900;2023-05-17T03:32:10;101082.56;;;9.80;100.00
14232;BME280;7200;52.194;9.900;2023-05-17T03:34:55;101086.34;;;9.68;100.00
14232;BME280;7200;52.194;9.900;2023-05-17T03:37:21;101090.19;;;9.52;100.00
14232;BME280;7200;52.194;9.900;2023-05-17T03:39:46;101092.78;;;9.55;100.00
14232;BME280;7200;52.194;9.900;2023-05-17T03:42:11;101088.50;;;9.49;100.00
14232;BME280;7200;52.194;9.900;2023-05-17T03:44:37;101098.28;;;9.43;100.00
14232;BME280;7200;52.194;9.900;2023-05-17T03:47:02;101107.16;;;9.39;100.00
14232;BME280;7200;52.194;9.900;2023-05-17T03:49:27;101167.13;;;10.08;100.00
14232;BME280;7200;52.194;9.900;2023-05-17T03:51:52;101137.22;;;10.48;100.00
14232;BME280;7200;52.194;9.900;2023-05-17T03:54:18;101082.34;;;9.49;100.00
14232;BME280;7200;52.194;9.900;2023-05-17T03:56:43;101087.91;;;9.37;100.00
14232;BME280;7200;52.194;9.900;2023-05-17T03:59:12;101105.44;;;9.36;100.00
14232;BME280;7200;52.194;9.900;2023-05-17T04:01:37;101112.66;;;9.26;100.00
14232;BME280;7200;52.194;9.900;2023-05-17T04:04:03;101127.56;;;9.29;100.00
14232;BME280;7200;52.194;9.900;2023-05-17T04:06:28;101133.69;;;9.29;100.00
14232;BME280;7200;52.194;9.900;2023-05-17T04:08:54;101137.16;;;9.31;100.00
14232;BME280;7200;52.194;9.900;2023-05-17T04:11:19;101139.88;;;9.27;100.00
14232;BME280;7200;52.194;9.900;2023-05-17T04:13:48;101156.56;;;9.26;100.00
14232;BME280;7200;52.194;9.900;2023-05-17T04:16:13;101158.38;;;9.24;100.00
14232;BME280;7200;52.194;9.900;2023-05-17T04:18:39;101152.28;;;9.20;100.00
14232;BME280;7200;52.194;9.900;2023-05-17T04:21:05;101162.03;;;9.15;100.00
14232;BME280;7200;52.194;9.900;2023-05-17T04:23:32;101155.19;;;9.06;100.00
14232;BME280;7200;52.194;9.900;2023-05-17T04:25:58;101171.66;;;9.18;100.00
14232;BME280;7200;52.194;9.900;2023-05-17T04:28:24;101171.16;;;8.95;100.00
14232;BME280;7200;52.194;9.900;2023-05-17T04:30:50;101177.19;;;9.02;100.00
14232;BME280;7200;52.194;9.900;2023-05-17T04:33:16;101181.44;;;9.09;100.00
14232;BME280;7200;52.194;9.900;2023-05-17T04:35:42;101183.22;;;9.07;100.00
14232;BME280;7200;52.194;9.900;2023-05-17T04:38:07;101183.91;;;9.19;100.00
14232;BME280;7200;52.194;9.900;2023-05-17T04:40:33;101194.38;;;9.23;100.00
14232;BME280;7200;52.194;9.900;2023-05-17T04:42:59;101182.09;;;9.21;100.00
14232;BME280;7200;52.194;9.900;2023-05-17T04:45:24;101195.13;;;9.28;100.00
14232;BME280;7200;52.194;9.900;2023-05-17T04:47:50;101183.94;;;9.17;100.00
14232;BME280;7200;52.194;9.900;2023-05-17T04:50:17;101190.78;;;9.27;100.00
14232;BME280;7200;52.194;9.900;2023-05-17T04:52:44;101199.34;;;9.39;100.00
14232;BME280;7200;52.194;9.900;2023-05-17T04:55:09;101194.91;;;9.41;100.00
14232;BME280;7200;52.194;9.900;2023-05-17T04:57:35;101197.50;;;9.44;100.00
14232;BME280;7200;52.194;9.900;2023-05-17T05:00:05;101205.28;;;9.48;100.00
14232;BME280;7200;52.194;9.900;2023-05-17T05:02:31;101199.19;;;9.46;100.00
14232;BME280;7200;52.194;9.900;2023-05-17T05:04:57;101198.09;;;9.57;100.00
14232;BME280;7200;52.194;9.900;2023-05-17T05:07:22;101196.41;;;9.54;100.00
14232;BME280;7200;52.194;9.900;2023-05-17T05:09:48;101199.72;;;9.64;100.00
14232;BME280;7200;52.194;9.900;2023-05-17T05:12:13;101200.66;;;9.61;100.00
14232;BME280;7200;52.194;9.900;2023-05-17T05:14:38;101198.13;;;9.99;100.00
14232;BME280;7200;52.194;9.900;2023-05-17T05:17:04;101228.75;;;10.45;100.00
14232;BME280;7200;52.194;9.900;2023-05-17T05:19:29;101208.09;;;10.62;100.00
14232;BME280;7200;52.194;9.900;2023-05-17T05:21:54;101189.75;;;10.58;100.00
14232;BME280;7200;52.194;9.900;2023-05-17T05:24:20;101130.03;;;10.16;100.00
14232;BME280;7200;52.194;9.900;2023-05-17T05:26:45;101114.66;;;9.98;100.00
14232;BME280;7200;52.194;9.900;2023-05-17T05:29:10;101185.97;;;10.68;100.00
14232;BME280;7200;52.194;9.900;2023-05-17T05:31:35;101187.28;;;10.86;100.00
14232;BME280;7200;52.194;9.900;2023-05-17T05:34:01;101154.44;;;10.63;100.00
14232;BME280;7200;52.194;9.900;2023-05-17T05:36:27;101165.56;;;10.76;100.00
14232;BME280;7200;52.194;9.900;2023-05-17T05:38:52;101191.31;;;11.01;100.00
14232;BME280;7200;52.194;9.900;2023-05-17T05:41:19;101172.84;;;11.01;100.00
14232;BME280;7200;52.194;9.900;2023-05-17T05:43:44;101152.78;;;10.94;100.00
14232;BME280;7200;52.194;9.900;2023-05-17T05:46:09;101146.31;;;10.71;100.00
14232;BME280;7200;52.194;9.900;2023-05-17T05:48:35;101128.66;;;10.73;100.00
14232;BME280;7200;52.194;9.900;2023-05-17T05:51:03;101148.88;;;11.08;100.00
14232;BME280;7200;52.194;9.900;2023-05-17T05:53:29;101140.28;;;11.00;100.00
14232;BME280;7200;52.194;9.900;2023-05-17T05:55:54;101112.84;;;10.73;100.00
14232;BME280;7200;52.194;9.900;2023-05-17T05:58:20;101068.63;;;10.48;100.00
14232;BME280;7200;52.194;9.900;2023-05-17T06:00:45;101138.59;;;10.98;100.00
14232;BME280;7200;52.194;9.900;2023-05-17T06:03:11;101158.75;;;11.33;100.00
14232;BME280;7200;52.194;9.900;2023-05-17T06:05:36;101104.69;;;11.15;100.00
14232;BME280;7200;52.194;9.900;2023-05-17T06:08:02;101096.34;;;11.29;100.00
14232;BME280;7200;52.194;9.900;2023-05-17T06:10:27;101061.88;;;11.04;100.00
14232;BME280;7200;52.194;9.900;2023-05-17T06:12:53;101071.47;;;11.06;100.00
14232;BME280;7200;52.194;9.900;2023-05-17T06:15:18;101095.44;;;11.30;100.00
14232;BME280;7200;52.194;9.900;2023-05-17T06:17:43;101082.13;;;11.33;100.00
14232;BME280;7200;52.194;9.900;2023-05-17T06:20:09;101071.28;;;11.13;100.00
14232;BME280;7200;52.194;9.900;2023-05-17T06:22:34;101038.72;;;10.81;100.00
14232;BME280;7200;52.194;9.900;2023-05-17T06:24:59;101061.47;;;10.85;100.00
14232;BME280;7200;52.194;9.900;2023-05-17T06:27:25;101069.91;;;10.99;100.00
14232;BME280;7200;52.194;9.900;2023-05-17T06:29:50;101062.28;;;10.88;100.00
14232;BME280;7200;52.194;9.900;2023-05-17T06:32:16;101092.56;;;11.08;100.00
14232;BME280;7200;52.194;9.900;2023-05-17T06:34:41;101096.88;;;11.10;100.00
14232;BME280;7200;52.194;9.900;2023-05-17T06:37:06;101101.72;;;11.26;100.00
14232;BME280;7200;52.194;9.900;2023-05-17T06:39:32;101079.50;;;11.02;100.00
14232;BME280;7200;52.194;9.900;2023-05-17T06:41:57;101081.50;;;10.94;100.00
14232;BME280;7200;52.194;9.900;2023-05-17T06:44:22;101121.03;;;11.28;100.00
14232;BME280;7200;52.194;9.900;2023-05-17T06:46:47;101129.16;;;11.52;100.00
14232;BME280;7200;52.194;9.900;2023-05-17T06:49:13;101104.97;;;11.65;100.00
14232;BME280;7200;52.194;9.900;2023-05-17T06:51:38;101107.97;;;11.83;100.00
14232;BME280;7200;52.194;9.900;2023-05-17T06:54:03;101072.97;;;11.75;100.00
14232;BME280;7200;52.194;9.900;2023-05-17T06:56:29;101072.31;;;11.68;100.00
14232;BME280;7200;52.194;9.900;2023-05-17T06:58:54;101087.19;;;12.00;100.00
14232;BME280;7200;52.194;9.900;2023-05-17T07:01:19;101099.72;;;12.22;100.00
14232;BME280;7200;52.194;9.900;2023-05-17T07:03:45;101077.19;;;12.37;100.00
14232;BME280;7200;52.194;9.900;2023-05-17T07:06:10;101046.84;;;12.20;100.00
14232;BME280;7200;52.194;9.900;2023-05-17T07:08:35;101080.00;;;12.57;100.00
14232;BME280;7200;52.194;9.900;2023-05-17T07:11:00;101034.75;;;12.40;100.00
14232;BME280;7200;52.194;9.900;2023-05-17T07:13:28;101034.50;;;12.21;100.00
14232;BME280;7200;52.194;9.900;2023-05-17T07:15:54;101032.97;;;12.14;100.00
14232;BME280;7200;52.194;9.900;2023-05-17T07:18:19;101051.00;;;12.54;100.00
14232;BME280;7200;52.194;9.900;2023-05-17T07:20:44;101006.34;;;12.18;100.00
14232;BME280;7200;52.194;9.900;2023-05-17T07:23:10;100999.72;;;12.32;100.00
14232;BME280;7200;52.194;9.900;2023-05-17T07:25:35;100930.53;;;11.92;100.00
14232;BME280;7200;52.194;9.900;2023-05-17T07:28:03;100935.03;;;11.90;100.00
14232;BME280;7200;52.194;9.900;2023-05-17T07:30:29;100961.16;;;11.99;100.00
14232;BME280;7200;52.194;9.900;2023-05-17T07:32:54;100980.53;;;12.26;100.00
14232;BME280;7200;52.194;9.900;2023-05-17T07:35:20;100938.50;;;12.17;100.00
14232;BME280;7200;52.194;9.900;2023-05-17T07:37:45;100935.97;;;12.14;100.00
14232;BME280;7200;52.194;9.900;2023-05-17T07:40:11;100970.03;;;12.49;100.00
14232;BME280;7200;52.194;9.900;2023-05-17T07:42:36;100895.97;;;12.23;100.00
14232;BME280;7200;52.194;9.900;2023-05-17T07:45:02;100927.56;;;12.52;100.00
14232;BME280;7200;52.194;9.900;2023-05-17T07:47:27;100889.97;;;12.43;100.00
14232;BME280;7200;52.194;9.900;2023-05-17T07:49:52;100896.97;;;12.68;100.00
14232;BME280;7200;52.194;9.900;2023-05-17T07:52:18;100871.16;;;12.51;100.00
14232;BME280;7200;52.194;9.900;2023-05-17T07:54:43;100890.09;;;12.64;100.00
14232;BME280;7200;52.194;9.900;2023-05-17T07:57:08;100872.66;;;12.58;100.00
14232;BME280;7200;52.194;9.900;2023-05-17T07:59:34;100929.88;;;12.84;100.00
14232;BME280;7200;52.194;9.900;2023-05-17T08:01:59;100947.91;;;12.98;100.00
14232;BME280;7200;52.194;9.900;2023-05-17T08:04:24;101004.34;;;13.48;100.00
14232;BME280;7200;52.194;9.900;2023-05-17T08:06:50;100932.75;;;13.48;100.00
14232;BME280;7200;52.194;9.900;2023-05-17T08:09:15;100854.41;;;12.96;100.00
14232;BME280;7200;52.194;9.900;2023-05-17T08:11:41;100861.47;;;12.96;100.00
14232;BME280;7200;52.194;9.900;2023-05-17T08:14:13;100960.69;;;13.34;100.00
14232;BME280;7200;52.194;9.900;2023-05-17T08:16:40;100868.09;;;13.08;100.00
14232;BME280;7200;52.194;9.900;2023-05-17T08:19:05;100745.56;;;12.36;100.00
14232;BME280;7200;52.194;9.900;2023-05-17T08:21:30;100726.34;;;12.31;100.00
14232;BME280;7200;52.194;9.900;2023-05-17T08:23:56;100839.34;;;12.75;100.00
14232;BME280;7200;52.194;9.900;2023-05-17T08:26:21;100960.75;;;13.55;100.00
14232;BME280;7200;52.194;9.900;2023-05-17T08:28:46;100893.31;;;13.62;100.00
14232;BME280;7200;52.194;9.900;2023-05-17T08:31:12;100868.97;;;13.93;100.00
14232;BME280;7200;52.194;9.900;2023-05-17T08:33:37;100894.97;;;14.06;100.00
14232;BME280;7200;52.194;9.900;2023-05-17T08:36:03;100871.56;;;13.74;100.00
14232;BME280;7200;52.194;9.900;2023-05-17T08:38:32;100862.00;;;13.05;100.00
14232;BME280;7200;52.194;9.900;2023-05-17T08:40:59;100883.03;;;12.87;100.00
14232;BME280;7200;52.194;9.900;2023-05-17T08:43:24;100877.84;;;12.83;100.00
14232;BME280;7200;52.194;9.900;2023-05-17T08:45:50;100915.44;;;12.93;100.00
14232;BME280;7200;52.194;9.900;2023-05-17T08:48:17;100965.94;;;13.36;100.00
14232;BME280;7200;52.194;9.900;2023-05-17T08:50:45;100895.75;;;13.22;100.00
14232;BME280;7200;52.194;9.900;2023-05-17T08:53:11;100912.47;;;13.24;100.00
14232;BME280;7200;52.194;9.900;2023-05-17T08:55:37;100921.06;;;13.30;100.00
14232;BME280;7200;52.194;9.900;2023-05-17T08:58:05;100874.88;;;12.69;100.00
14232;BME280;7200;52.194;9.900;2023-05-17T09:00:31;100898.88;;;12.64;100.00
14232;BME280;7200;52.194;9.900;2023-05-17T09:02:58;100916.75;;;12.58;100.00
14232;BME280;7200;52.194;9.900;2023-05-17T09:05:24;101047.84;;;13.42;100.00
14232;BME280;7200;52.194;9.900;2023-05-17T09:07:50;100997.88;;;13.55;100.00
14232;BME280;7200;52.194;9.900;2023-05-17T09:10:16;100965.22;;;13.75;100.00
14232;BME280;7200;52.194;9.900;2023-05-17T09:12:43;100857.13;;;13.39;100.00
14232;BME280;7200;52.194;9.900;2023-05-17T09:15:22;100908.03;;;13.90;99.48
14232;BME280;7200;52.194;9.900;2023-05-17T09:17:52;100845.16;;;14.12;95.20
14232;BME280;7200;52.194;9.900;2023-05-17T09:20:22;100859.78;;;14.41;93.41
14232;BME280;7200;52.194;9.900;2023-05-17T09:22:49;100865.44;;;14.34;94.33
14232;BME280;7200;52.194;9.900;2023-05-17T09:25:18;100943.38;;;14.72;94.52
14232;BME280;7200;52.194;9.900;2023-05-17T09:27:43;100817.38;;;14.00;94.71
14232;BME280;7200;52.194;9.900;2023-05-17T09:30:09;100808.72;;;13.76;94.73
14232;BME280;7200;52.194;9.900;2023-05-17T09:32:42;100863.53;;;13.96;94.41
14232;BME280;7200;52.194;9.900;2023-05-17T09:35:09;100746.59;;;13.61;93.10
14232;BME280;7200;52.194;9.900;2023-05-17T09:37:36;100805.13;;;13.77;94.16
14232;BME280;7200;52.194;9.900;2023-05-17T09:40:02;100848.31;;;13.81;95.49
14232;BME280;7200;52.194;9.900;2023-05-17T09:42:29;100930.38;;;14.05;96.87
14232;BME280;7200;52.194;9.900;2023-05-17T09:44:55;100946.25;;;14.06;98.13
14232;BME280;7200;52.194;9.900;2023-05-17T09:47:25;100960.25;;;14.30;97.75
14232;BME280;7200;52.194;9.900;2023-05-17T09:49:50;100847.28;;;14.04;96.37
14232;BME280;7200;52.194;9.900;2023-05-17T09:52:17;100884.81;;;13.74;98.69
14232;BME280;7200;52.194;9.900;2023-05-17T09:54:50;100946.13;;;13.67;100.00
14232;BME280;7200;52.194;9.900;2023-05-17T09:57:16;100955.72;;;13.49;100.00
14232;BME280;7200;52.194;9.900;2023-05-17T09:59:42;100944.53;;;13.40;100.00
14232;BME280;7200;52.194;9.900;2023-05-17T10:02:11;100937.94;;;13.51;100.00
14232;BME280;7200;52.194;9.900;2023-05-17T10:04:41;100954.09;;;13.67;100.00
14232;BME280;7200;52.194;9.900;2023-05-17T10:07:07;100892.09;;;13.69;99.27
14232;BME280;7200;52.194;9.900;2023-05-17T10:09:33;100835.13;;;13.37;98.33
14232;BME280;7200;52.194;9.900;2023-05-17T10:12:01;100869.19;;;13.46;98.69
14232;BME280;7200;52.194;9.900;2023-05-17T10:14:29;100921.09;;;13.74;98.08
14232;BME280;7200;52.194;9.900;2023-05-17T10:16:57;100857.88;;;14.25;91.71
14232;BME280;7200;52.194;9.900;2023-05-17T10:19:24;100857.56;;;14.51;88.77
14232;BME280;7200;52.194;9.900;2023-05-17T10:21:51;100748.28;;;14.04;89.59
14232;BME280;7200;52.194;9.900;2023-05-17T10:24:18;100842.03;;;14.02;92.83
14232;BME280;7200;52.194;9.900;2023-05-17T10:26:44;100851.28;;;13.94;93.21
14232;BME280;7200;52.194;9.900;2023-05-17T10:29:10;100855.66;;;13.95;93.21
14232;BME280;7200;52.194;9.900;2023-05-17T10:31:35;100887.94;;;14.25;93.29
14232;BME280;7200;52.194;9.900;2023-05-17T10:34:02;100829.75;;;14.20;91.64
14232;BME280;7200;52.194;9.900;2023-05-17T10:36:29;100848.56;;;14.35;90.83
14232;BME280;7200;52.194;9.900;2023-05-17T10:38:55;100863.84;;;14.30;91.48
14232;BME280;7200;52.194;9.900;2023-05-17T10:41:23;100863.38;;;14.59;89.57
14232;BME280;7200;52.194;9.900;2023-05-17T10:43:50;100894.28;;;14.81;89.59
14232;BME280;7200;52.194;9.900;2023-05-17T10:46:17;100836.28;;;14.72;87.85
14232;BME280;7200;52.194;9.900;2023-05-17T10:48:47;100855.63;;;14.55;87.77
14232;BME280;7200;52.194;9.900;2023-05-17T10:51:14;100920.78;;;15.02;88.06
14232;BME280;7200;52.194;9.900;2023-05-17T10:56:29;100937.34;;;15.26;87.61
14232;BME280;7200;52.194;9.900;2023-05-17T10:59:14;100782.31;;;14.71;85.54
14232;BME280;7200;52.194;9.900;2023-05-17T11:01:53;100860.41;;;14.86;88.08
14232;BME280;7200;52.194;9.900;2023-05-17T11:04:21;100788.81;;;14.45;86.48
14232;BME280;7200;52.194;9.900;2023-05-17T11:06:50;100746.41;;;14.25;86.62
14232;BME280;7200;52.194;9.900;2023-05-17T11:09:16;100900.81;;;14.93;88.13
14232;BME280;7200;52.194;9.900;2023-05-17T11:12:06;100945.44;;;15.42;86.49
14232;BME280;7200;52.194;9.900;2023-05-17T11:25:13;100788.78;;;14.66;83.34
14232;BME280;7200;52.194;9.900;2023-05-17T11:30:30;100786.47;;;14.58;82.76
14232;BME280;7200;52.194;9.900;2023-05-17T11:33:04;100765.66;;;14.68;82.20
14232;BME280;7200;52.194;9.900;2023-05-17T11:35:34;100812.34;;;14.53;84.83
14232;BME280;7200;52.194;9.900;2023-05-17T11:38:16;100865.41;;;14.92;83.18
14232;BME280;7200;52.194;9.900;2023-05-17T11:40:43;100862.09;;;15.06;81.39
14232;BME280;7200;52.194;9.900;2023-05-17T11:43:17;100819.38;;;15.28;79.24
14232;BME280;7200;52.194;9.900;2023-05-17T11:45:49;100797.38;;;15.07;79.46
14232;BME280;7200;52.194;9.900;2023-05-17T11:48:16;100787.47;;;15.28;77.39
14232;BME280;7200;52.194;9.900;2023-05-17T11:50:43;100754.41;;;15.16;76.94
14232;BME280;7200;52.194;9.900;2023-05-17T11:53:10;100749.94;;;15.17;76.81
14232;BME280;7200;52.194;9.900;2023-05-17T11:55:43;100740.69;;;14.89;77.36
14232;BME280;7200;52.194;9.900;2023-05-17T11:58:10;100795.19;;;15.15;77.92
14232;BME280;7200;52.194;9.900;2023-05-17T12:00:37;100875.28;;;15.44;78.60
14232;BME280;7200;52.194;9.900;2023-05-17T12:06:00;100863.16;;;15.38;79.11
14232;BME280;7200;52.194;9.900;2023-05-17T12:08:26;100802.66;;;14.71;82.28
14232;BME280;7200;52.194;9.900;2023-05-17T12:10:52;100956.16;;;15.21;84.54
14232;BME280;7200;52.194;9.900;2023-05-17T12:13:18;100937.47;;;15.42;83.37
14232;BME280;7200;52.194;9.900;2023-05-17T12:15:50;100928.31;;;15.47;82.65
14232;BME280;7200;52.194;9.900;2023-05-17T12:18:16;100957.00;;;15.60;82.98
14232;BME280;7200;52.194;9.900;2023-05-17T12:20:57;100813.13;;;14.93;80.72
14232;BME280;7200;52.194;9.900;2023-05-17T12:23:27;100863.16;;;15.38;79.61
14232;BME280;7200;52.194;9.900;2023-05-17T12:26:09;100951.97;;;16.07;77.83
14232;BME280;7200;52.194;9.900;2023-05-17T12:28:37;100854.41;;;16.06;74.56
14232;BME280;7200;52.194;9.900;2023-05-17T12:31:06;100791.09;;;15.45;74.58
14232;BME280;7200;52.194;9.900;2023-05-17T12:33:36;100924.81;;;16.01;76.29
14232;BME280;7200;52.194;9.900;2023-05-17T12:36:03;100873.22;;;16.03;75.04
14232;BME280;7200;52.194;9.900;2023-05-17T12:38:31;100709.75;;;15.06;76.06
14232;BME280;7200;52.194;9.900;2023-05-17T12:41:01;100888.59;;;15.44;79.95
14232;BME280;7200;52.194;9.900;2023-05-17T12:43:27;100879.66;;;15.28;82.02
14232;BME280;7200;52.194;9.900;2023-05-17T12:46:01;100978.63;;;15.33;84.67
14232;BME280;7200;52.194;9.900;2023-05-17T12:48:27;100951.34;;;15.48;83.35
14232;BME280;7200;52.194;9.900;2023-05-17T12:50:53;100930.34;;;15.42;82.69
14232;BME280;7200;52.194;9.900;2023-05-17T12:53:20;100879.66;;;15.28;80.98
14232;BME280;7200;52.194;9.900;2023-05-17T12:55:47;100891.53;;;15.21;80.82
14232;BME280;7200;52.194;9.900;2023-05-17T12:58:12;101055.03;;;16.23;81.02
14232;BME280;7200;52.194;9.900;2023-05-17T13:00:38;100978.16;;;16.67;74.95
14232;BME280;7200;52.194;9.900;2023-05-17T13:03:08;100833.78;;;16.27;71.91
14232;BME280;7200;52.194;9.900;2023-05-17T13:05:34;100722.09;;;15.42;72.85
14232;BME280;7200;52.194;9.900;2023-05-17T13:08:17;100790.66;;;15.17;76.66
14232;BME280;7200;52.194;9.900;2023-05-17T13:10:43;100948.53;;;15.69;79.28
14232;BME280;7200;52.194;9.900;2023-05-17T13:13:17;100762.44;;;14.97;78.07
14232;BME280;7200;52.194;9.900;2023-05-17T13:15:45;100909.78;;;15.46;80.07
14232;BME280;7200;52.194;9.900;2023-05-17T13:18:12;100909.66;;;15.66;78.35
14232;BME280;7200;52.194;9.900;2023-05-17T13:20:39;100933.56;;;15.85;78.22